createdAt,value
2023-05-04T00:01:30.024Z,13.60
2023-05-04T00:04:15.928Z,13.60
2023-05-04T00:07:01.399Z,13.50
2023-05-04T00:09:47.043Z,13.50
2023-05-04T00:12:32.559Z,13.50
2023-05-04T00:15:18.368Z,13.40
2023-05-04T00:18:04.220Z,13.40
2023-05-04T00:20:50.098Z,13.40
2023-05-04T00:23:35.705Z,13.50
2023-05-04T00:26:21.230Z,13.40
2023-05-04T00:29:07.758Z,13.40
2023-05-04T00:31:53.574Z,13.40
2023-05-04T00:34:39.421Z,13.40
2023-05-04T00:37:25.102Z,13.40
2023-05-04T00:40:10.953Z,13.30
2023-05-04T00:42:56.551Z,13.40
2023-05-04T00:45:42.399Z,13.30
2023-05-04T00:48:27.833Z,13.20
2023-05-04T00:51:14.190Z,13.20
2023-05-04T00:54:00.184Z,13.30
2023-05-04T00:56:46.325Z,13.20
2023-05-04T00:59:31.919Z,13.20
2023-05-04T01:02:17.360Z,13.20
2023-05-04T01:05:03.550Z,13.20
2023-05-04T01:08:02.172Z,13.20
2023-05-04T01:10:47.633Z,13.20
2023-05-04T01:13:34.738Z,13.20
2023-05-04T01:16:20.884Z,13.10
2023-05-04T01:19:07.315Z,13.10
2023-05-04T01:21:52.889Z,13.00
2023-05-04T01:24:40.215Z,12.90
2023-05-04T01:27:36.407Z,13.00
2023-05-04T01:30:25.278Z,13.00
2023-05-04T01:33:11.575Z,13.00
2023-05-04T01:35:57.301Z,13.00
2023-05-04T01:38:44.361Z,13.00
2023-05-04T01:41:30.717Z,12.90
2023-05-04T01:44:16.675Z,13.00
2023-05-04T01:47:02.865Z,12.90
2023-05-04T01:49:48.592Z,13.00
2023-05-04T01:52:34.864Z,13.00
2023-05-04T01:55:20.625Z,13.00
2023-05-04T01:58:06.213Z,13.00
2023-05-04T02:00:51.890Z,12.90
2023-05-04T02:03:37.593Z,12.90
2023-05-04T02:06:23.013Z,12.80
2023-05-04T02:09:08.798Z,12.80
2023-05-04T02:11:54.450Z,12.80
2023-05-04T02:14:40.208Z,12.80
2023-05-04T02:17:25.558Z,12.80
2023-05-04T02:20:11.388Z,12.70
2023-05-04T02:22:57.032Z,12.70
2023-05-04T02:25:44.853Z,12.70
2023-05-04T02:28:30.382Z,12.70
2023-05-04T02:31:16.022Z,12.60
2023-05-04T02:34:01.808Z,12.70
2023-05-04T02:36:49.126Z,12.60
2023-05-04T02:39:34.954Z,12.60
2023-05-04T02:42:20.846Z,12.60
2023-05-04T02:45:07.705Z,12.60
2023-05-04T02:47:53.285Z,12.60
2023-05-04T02:50:38.808Z,12.60
2023-05-04T02:53:24.798Z,12.50
2023-05-04T02:56:10.278Z,12.50
2023-05-04T02:58:56.078Z,12.50
2023-05-04T03:01:41.943Z,12.50
2023-05-04T03:04:27.499Z,12.50
2023-05-04T03:07:13.285Z,12.50
2023-05-04T03:09:59.059Z,12.50
2023-05-04T03:12:45.781Z,12.50
2023-05-04T03:15:34.793Z,12.50
2023-05-04T03:18:20.370Z,12.50
2023-05-04T03:21:07.889Z,12.50
2023-05-04T03:23:54.755Z,12.40
2023-05-04T03:26:40.231Z,12.40
2023-05-04T03:29:26.463Z,12.30
2023-05-04T03:32:13.490Z,12.30
2023-05-04T03:35:00.596Z,12.20
2023-05-04T03:37:47.972Z,12.20
2023-05-04T03:40:34.194Z,12.10
2023-05-04T03:43:19.837Z,12.10
2023-05-04T03:46:05.865Z,12.10
2023-05-04T03:48:51.898Z,12.10
2023-05-04T03:51:38.325Z,12.10
2023-05-04T03:54:24.258Z,12.00
2023-05-04T03:57:10.207Z,12.00
2023-05-04T03:59:57.841Z,12.00
2023-05-04T04:02:45.034Z,12.00
2023-05-04T04:05:36.429Z,12.00
2023-05-04T04:08:22.672Z,12.00
2023-05-04T04:11:08.167Z,12.00
2023-05-04T04:13:53.760Z,11.90
2023-05-04T04:16:39.480Z,11.90
2023-05-04T04:19:25.152Z,11.90
2023-05-04T04:22:11.111Z,11.80
2023-05-04T04:24:56.945Z,11.90
2023-05-04T04:27:42.752Z,11.90
2023-05-04T04:30:28.532Z,11.90
2023-05-04T04:33:15.098Z,11.90
2023-05-04T04:36:01.017Z,11.80
2023-05-04T04:38:46.519Z,11.80
2023-05-04T04:41:32.484Z,11.80
2023-05-04T04:44:18.470Z,11.80
2023-05-04T04:47:04.237Z,11.90
2023-05-04T04:49:50.070Z,12.10
2023-05-04T04:52:35.833Z,12.20
2023-05-04T04:55:21.308Z,12.40
2023-05-04T04:58:08.559Z,12.60
2023-05-04T05:00:58.378Z,12.70
2023-05-04T05:03:47.572Z,12.80
2023-05-04T05:06:33.661Z,13.00
2023-05-04T05:09:19.295Z,13.20
2023-05-04T05:12:05.523Z,13.60
2023-05-04T05:14:51.298Z,14.10
2023-05-04T05:17:37.767Z,14.80
2023-05-04T05:20:23.686Z,16.00
2023-05-04T05:23:09.286Z,17.20
2023-05-04T05:25:55.922Z,18.10
2023-05-04T05:28:42.083Z,18.90
2023-05-04T05:31:28.032Z,19.60
2023-05-04T05:34:13.569Z,20.00
2023-05-04T05:36:59.238Z,20.20
2023-05-04T05:39:46.199Z,20.10
2023-05-04T05:42:32.288Z,19.70
2023-05-04T05:45:18.366Z,19.40
2023-05-04T05:48:04.145Z,19.10
2023-05-04T05:50:50.315Z,18.80
2023-05-04T05:53:35.986Z,18.60
2023-05-04T05:56:22.330Z,18.30
2023-05-04T05:59:07.951Z,18.20
2023-05-04T06:01:53.633Z,18.00
2023-05-04T06:04:39.382Z,17.80
2023-05-04T06:07:25.582Z,17.60
2023-05-04T06:10:11.523Z,17.60
2023-05-04T06:12:57.606Z,17.60
2023-05-04T06:15:50.477Z,17.80
2023-05-04T06:18:36.419Z,17.90
2023-05-04T06:21:22.303Z,18.10
2023-05-04T06:24:07.882Z,18.20
2023-05-04T06:26:53.688Z,18.40
2023-05-04T06:29:40.603Z,18.50
2023-05-04T06:32:26.372Z,18.80
2023-05-04T06:35:11.960Z,18.90
2023-05-04T06:37:57.544Z,19.10
2023-05-04T06:40:43.289Z,19.40
2023-05-04T06:43:28.881Z,19.60
2023-05-04T06:46:14.871Z,19.80
2023-05-04T06:49:00.334Z,20.10
2023-05-04T06:51:46.002Z,20.20
2023-05-04T06:54:32.549Z,20.50
2023-05-04T06:57:18.304Z,20.60
2023-05-04T07:00:05.247Z,20.50
2023-05-04T07:02:52.783Z,20.70
2023-05-04T07:05:38.379Z,20.90
2023-05-04T07:08:23.886Z,21.20
2023-05-04T07:11:10.248Z,21.10
2023-05-04T07:13:56.052Z,21.40
2023-05-04T07:16:41.878Z,21.50
2023-05-04T07:19:27.503Z,21.60
2023-05-04T07:22:12.927Z,21.90
2023-05-04T07:24:58.714Z,22.10
2023-05-04T07:27:45.226Z,22.20
2023-05-04T07:30:30.852Z,21.90
2023-05-04T07:33:17.632Z,21.90
2023-05-04T07:36:03.374Z,22.10
2023-05-04T07:38:49.127Z,22.20
2023-05-04T07:41:34.905Z,22.00
2023-05-04T07:44:20.711Z,22.00
2023-05-04T07:47:06.585Z,22.10
2023-05-04T07:49:52.185Z,21.80
2023-05-04T07:52:38.250Z,22.00
2023-05-04T07:55:26.491Z,22.20
2023-05-04T07:58:13.280Z,22.30
2023-05-04T08:00:58.742Z,22.40
2023-05-04T08:03:45.309Z,21.90
2023-05-04T08:06:31.062Z,22.10
2023-05-04T08:09:18.221Z,22.80
2023-05-04T08:12:04.483Z,23.20
2023-05-04T08:14:50.420Z,23.80
2023-05-04T08:17:37.952Z,24.10
2023-05-04T08:20:24.028Z,24.20
2023-05-04T08:23:10.302Z,24.10
2023-05-04T08:25:56.198Z,23.60
2023-05-04T08:28:41.719Z,23.70
2023-05-04T09:16:44.510Z,22.70
2023-05-04T09:24:12.808Z,22.90
2023-05-04T09:27:11.678Z,22.70
2023-05-04T09:29:57.434Z,22.70
2023-05-04T09:32:46.873Z,22.80
2023-05-04T09:35:34.101Z,22.60
2023-05-04T09:38:26.853Z,22.50
2023-05-04T09:41:12.684Z,22.70
2023-05-04T09:43:58.471Z,22.60
2023-05-04T09:46:51.956Z,22.40
2023-05-04T09:49:37.970Z,22.50
2023-05-04T09:52:23.624Z,22.20
2023-05-04T09:55:11.726Z,22.30
2023-05-04T09:57:57.591Z,22.30
2023-05-04T10:00:43.918Z,22.50
2023-05-04T10:03:29.930Z,22.30
2023-05-04T10:06:16.493Z,22.50
2023-05-04T10:09:02.404Z,22.80
2023-05-04T10:11:48.351Z,22.80
2023-05-04T10:14:36.871Z,22.50
2023-05-04T10:17:25.414Z,22.40
2023-05-04T10:20:14.137Z,22.20
2023-05-04T10:23:10.664Z,22.00
2023-05-04T10:26:15.449Z,22.00
2023-05-04T10:29:22.596Z,22.00
2023-05-04T10:32:19.335Z,21.80
2023-05-04T10:35:08.841Z,21.60
2023-05-04T10:37:55.043Z,21.70
2023-05-04T10:40:40.959Z,22.00
2023-05-04T10:43:26.830Z,22.00
2023-05-04T10:46:16.907Z,21.80
2023-05-04T10:49:02.724Z,21.60
2023-05-04T10:51:49.713Z,21.80
2023-05-04T10:54:37.211Z,21.80
2023-05-04T10:57:22.869Z,21.80
2023-05-04T11:00:09.699Z,21.80
2023-05-04T11:08:24.254Z,22.00
2023-05-04T11:11:09.778Z,21.90
2023-05-04T11:13:55.347Z,22.10
2023-05-04T11:16:40.827Z,22.20
2023-05-04T11:19:26.463Z,22.10
2023-05-04T11:22:13.908Z,22.00
2023-05-04T11:24:59.428Z,21.90
2023-05-04T11:27:48.965Z,22.10
2023-05-04T11:30:36.413Z,22.20
2023-05-04T11:33:21.951Z,22.00
2023-05-04T11:36:07.840Z,22.20
2023-05-04T11:38:56.193Z,22.00
2023-05-04T11:41:43.499Z,22.10
2023-05-04T11:44:30.131Z,22.10
2023-05-04T11:47:16.137Z,22.20
2023-05-04T11:50:01.682Z,22.40
2023-05-04T11:52:47.831Z,22.50
2023-05-04T11:55:33.547Z,22.50
2023-05-04T11:58:24.160Z,22.40
2023-05-04T12:01:09.815Z,22.50
2023-05-04T12:03:55.677Z,22.40
2023-05-04T12:06:41.467Z,21.60
2023-05-04T12:09:27.370Z,22.40
2023-05-04T12:12:13.283Z,22.40
2023-05-04T12:14:58.937Z,22.70
2023-05-04T12:17:44.663Z,22.70
2023-05-04T12:20:30.655Z,22.80
2023-05-04T12:23:16.386Z,22.80
2023-05-04T12:26:02.690Z,22.90
2023-05-04T12:28:48.209Z,22.90
2023-05-04T12:31:33.964Z,22.50
2023-05-04T12:34:19.595Z,22.20
2023-05-04T12:37:05.786Z,22.30
2023-05-04T12:39:51.818Z,22.50
2023-05-04T12:42:37.818Z,22.50
2023-05-04T12:45:23.266Z,22.60
2023-05-04T12:48:09.274Z,22.50
2023-05-04T12:50:55.312Z,22.60
2023-05-04T12:53:41.945Z,22.60
2023-05-04T12:56:27.738Z,22.70
2023-05-04T12:59:13.249Z,22.70
2023-05-04T13:01:58.851Z,22.70
2023-05-04T13:04:44.652Z,22.70
2023-05-04T13:07:30.739Z,22.80
2023-05-04T13:10:16.751Z,22.80
2023-05-04T13:13:04.853Z,22.90
2023-05-04T13:15:50.590Z,22.80
2023-05-04T13:18:36.041Z,22.60
2023-05-04T13:21:21.874Z,22.70
2023-05-04T13:24:07.471Z,22.60
2023-05-04T13:26:52.851Z,22.60
2023-05-04T13:29:39.042Z,22.70
2023-05-04T13:32:27.478Z,22.60
2023-05-04T13:35:13.334Z,22.50
2023-05-04T13:37:58.824Z,22.70
2023-05-04T13:40:44.713Z,22.70
2023-05-04T13:43:30.559Z,22.80
2023-05-04T13:46:16.184Z,22.90
2023-05-04T13:49:01.649Z,22.70
2023-05-04T13:51:47.610Z,22.90
2023-05-04T13:54:33.525Z,22.80
2023-05-04T13:57:18.947Z,22.90
2023-05-04T14:00:08.175Z,23.00
2023-05-04T14:02:57.371Z,23.00
2023-05-04T14:05:43.419Z,23.00
2023-05-04T14:08:29.017Z,22.90
2023-05-04T14:11:14.839Z,22.80
2023-05-04T14:14:00.584Z,22.80
2023-05-04T14:16:46.919Z,22.90
2023-05-04T14:19:32.784Z,23.10
2023-05-04T14:22:18.522Z,22.90
2023-05-04T14:25:04.290Z,22.90
2023-05-04T14:27:50.249Z,22.90
2023-05-04T14:30:35.762Z,22.90
2023-05-04T14:33:21.731Z,22.90
2023-05-04T14:36:08.046Z,22.90
2023-05-04T14:38:53.979Z,23.10
2023-05-04T14:41:39.593Z,23.10
2023-05-04T14:44:27.363Z,23.20
2023-05-04T14:47:13.320Z,23.20
2023-05-04T14:49:59.013Z,23.30
2023-05-04T14:52:44.498Z,23.30
2023-05-04T14:55:30.848Z,23.20
2023-05-04T14:58:17.001Z,23.00
2023-05-04T15:01:02.465Z,23.10
2023-05-04T15:03:48.154Z,23.10
2023-05-04T15:06:34.040Z,23.00
2023-05-04T15:09:19.933Z,23.10
2023-05-04T15:12:05.792Z,23.00
2023-05-04T15:14:51.623Z,23.00
2023-05-04T15:17:37.676Z,23.10
2023-05-04T15:20:23.529Z,23.10
2023-05-04T15:23:12.082Z,22.90
2023-05-04T15:25:58.126Z,22.70
2023-05-04T15:28:47.279Z,22.80
2023-05-04T15:31:33.238Z,22.80
2023-05-04T15:34:18.952Z,22.80
2023-05-04T15:37:04.772Z,22.80
2023-05-04T15:39:50.893Z,22.70
2023-05-04T15:42:36.777Z,22.70
2023-05-04T15:45:22.345Z,22.70
2023-05-04T15:48:08.150Z,22.80
2023-05-04T15:50:54.579Z,22.80
2023-05-04T15:53:40.375Z,22.80
2023-05-04T15:56:26.186Z,22.90
2023-05-04T15:59:11.584Z,22.80
2023-05-04T16:01:57.796Z,22.80
2023-05-04T16:04:43.318Z,22.60
2023-05-04T16:07:28.998Z,22.70
2023-05-04T16:10:14.679Z,22.70
2023-05-04T16:13:04.257Z,22.70
2023-05-04T16:15:51.172Z,22.60
2023-05-04T16:18:36.619Z,22.50
2023-05-04T16:21:22.239Z,22.50
2023-05-04T16:24:08.082Z,22.50
2023-05-04T16:26:54.224Z,22.50
2023-05-04T16:29:39.878Z,22.60
2023-05-04T16:32:25.795Z,22.50
2023-05-04T16:35:11.641Z,22.50
2023-05-04T16:37:57.410Z,22.60
2023-05-04T16:40:43.177Z,22.60
2023-05-04T16:43:28.451Z,22.40
2023-05-04T16:46:14.393Z,22.30
2023-05-04T16:49:00.129Z,22.40
2023-05-04T16:51:45.859Z,22.30
2023-05-04T16:54:31.896Z,22.30
2023-05-04T16:57:17.496Z,22.30
2023-05-04T17:00:04.090Z,22.20
2023-05-04T17:02:51.283Z,22.20
2023-05-04T17:05:36.908Z,22.20
2023-05-04T17:08:23.367Z,22.10
2023-05-04T17:11:08.942Z,22.10
2023-05-04T17:13:54.914Z,22.10
2023-05-04T17:16:40.702Z,22.00
2023-05-04T17:19:26.359Z,22.00
2023-05-04T17:22:11.902Z,22.00
2023-05-04T17:24:57.747Z,21.90
2023-05-04T17:27:44.051Z,22.00
2023-05-04T17:30:29.529Z,21.90
2023-05-04T17:33:15.149Z,21.90
2023-05-04T17:36:01.012Z,21.80
2023-05-04T17:38:46.749Z,21.70
2023-05-04T17:41:32.528Z,21.60
2023-05-04T17:44:18.275Z,21.60
2023-05-04T17:47:04.078Z,21.50
2023-05-04T17:49:49.640Z,21.50
2023-05-04T17:52:35.462Z,21.40
2023-05-04T17:55:23.512Z,21.40
2023-05-04T17:58:08.898Z,21.40
2023-05-04T18:00:54.986Z,21.30
2023-05-04T18:03:41.424Z,21.30
2023-05-04T18:06:27.726Z,21.20
2023-05-04T18:09:13.771Z,21.20
2023-05-04T18:11:59.489Z,21.10
2023-05-04T18:14:45.041Z,21.10
2023-05-04T18:17:30.633Z,21.00
2023-05-04T18:20:16.164Z,21.00
2023-05-04T18:23:02.159Z,20.90
2023-05-04T18:25:47.707Z,20.90
2023-05-04T18:28:33.207Z,20.80
2023-05-04T18:31:19.037Z,20.70
2023-05-04T18:34:04.572Z,20.70
2023-05-04T18:36:52.728Z,20.70
2023-05-04T18:39:39.629Z,20.60
2023-05-04T18:42:25.031Z,20.60
2023-05-04T18:45:11.366Z,20.60
2023-05-04T18:47:59.648Z,20.60
2023-05-04T18:50:57.301Z,20.50
2023-05-04T18:53:42.796Z,20.50
2023-05-04T18:56:28.332Z,20.40
2023-05-04T18:59:14.339Z,20.40
2023-05-04T19:01:59.756Z,20.30
2023-05-04T19:04:47.135Z,20.20
2023-05-04T19:07:32.898Z,20.10
2023-05-04T19:10:18.538Z,20.00
2023-05-04T19:13:04.661Z,19.90
2023-05-04T19:15:50.763Z,19.80
2023-05-04T19:18:36.506Z,19.70
2023-05-04T19:21:22.767Z,19.60
2023-05-04T19:24:10.114Z,19.50
2023-05-04T19:26:56.047Z,19.40
2023-05-04T19:29:41.932Z,19.30
2023-05-04T19:32:28.541Z,19.20
2023-05-04T19:35:14.827Z,19.10
2023-05-04T19:38:01.728Z,17.80
2023-05-04T19:40:50.226Z,19.00
2023-05-04T19:43:39.059Z,18.90
2023-05-04T19:46:24.667Z,18.80
2023-05-04T19:49:25.098Z,18.80
2023-05-04T19:52:15.237Z,18.70
2023-05-04T19:55:01.156Z,18.60
2023-05-04T19:57:49.831Z,18.50
2023-05-04T20:00:38.790Z,18.50
2023-05-04T20:03:24.720Z,18.40
2023-05-04T20:06:10.171Z,18.40
2023-05-04T20:08:56.333Z,18.40
2023-05-04T20:11:42.026Z,18.30
2023-05-04T20:14:28.055Z,18.30
2023-05-04T20:17:13.371Z,18.20
2023-05-04T20:20:00.137Z,18.20
2023-05-04T20:22:46.632Z,18.10
2023-05-04T20:25:32.430Z,18.10
2023-05-04T20:28:17.963Z,18.10
2023-05-04T20:31:03.837Z,18.10
2023-05-04T20:33:49.350Z,18.00
2023-05-04T20:36:35.115Z,17.90
2023-05-04T20:39:21.649Z,17.90
2023-05-04T20:42:08.165Z,17.80
2023-05-04T20:44:53.755Z,17.80
2023-05-04T20:47:39.479Z,17.80
2023-05-04T20:50:25.353Z,17.70
2023-05-04T20:53:11.003Z,17.70
2023-05-04T20:55:56.840Z,17.70
2023-05-04T20:58:42.541Z,17.70
2023-05-04T21:01:29.603Z,17.70
2023-05-04T21:04:15.196Z,17.70
2023-05-04T21:07:00.984Z,17.60
2023-05-04T21:09:46.413Z,17.60
2023-05-04T21:12:32.265Z,17.50
2023-05-04T21:15:17.840Z,17.50
2023-05-04T21:18:03.485Z,17.40
2023-05-04T21:20:49.092Z,17.30
2023-05-04T21:23:34.731Z,17.20
2023-05-04T21:26:20.568Z,17.20
2023-05-04T21:29:10.090Z,17.20
2023-05-04T21:31:57.386Z,17.20
2023-05-04T21:34:43.088Z,17.20
2023-05-04T21:37:28.715Z,17.20
2023-05-04T21:40:14.286Z,17.20
2023-05-04T21:43:01.990Z,17.10
2023-05-04T21:45:47.813Z,17.00
2023-05-04T21:48:33.676Z,16.90
2023-05-04T21:51:20.831Z,16.90
2023-05-04T21:54:06.705Z,16.80
2023-05-04T21:56:53.638Z,16.70
2023-05-04T21:59:39.094Z,16.70
2023-05-04T22:02:24.806Z,16.70
2023-05-04T22:05:10.962Z,16.60
2023-05-04T22:07:56.633Z,16.70
2023-05-04T22:10:42.275Z,16.60
2023-05-04T22:13:28.027Z,16.60
2023-05-04T22:16:13.859Z,16.60
2023-05-04T22:18:59.514Z,16.60
2023-05-04T22:21:45.496Z,16.60
2023-05-04T22:24:31.155Z,16.60
2023-05-04T22:27:17.167Z,16.50
2023-05-04T22:30:02.479Z,16.40
2023-05-04T22:32:48.050Z,16.30
2023-05-04T22:35:33.565Z,16.40
2023-05-04T22:38:19.305Z,16.40
2023-05-04T22:41:04.980Z,16.30
2023-05-04T22:43:50.711Z,16.20
2023-05-04T22:46:36.427Z,16.20
2023-05-04T22:49:22.091Z,16.20
2023-05-04T22:52:07.607Z,16.10
2023-05-04T22:54:53.518Z,16.00
2023-05-04T22:57:39.083Z,15.90
2023-05-04T23:00:25.034Z,16.00
2023-05-04T23:03:10.624Z,15.90
2023-05-04T23:05:59.018Z,15.90
2023-05-04T23:08:45.604Z,15.90
2023-05-04T23:11:31.321Z,15.90
2023-05-04T23:14:16.887Z,15.90
2023-05-04T23:17:02.800Z,15.90
2023-05-04T23:19:48.169Z,15.90
2023-05-04T23:22:33.956Z,15.90
2023-05-04T23:25:19.543Z,15.90
2023-05-04T23:28:05.430Z,15.90
2023-05-04T23:30:51.198Z,15.90
2023-05-04T23:33:37.018Z,15.90
2023-05-04T23:36:22.686Z,15.90
2023-05-04T23:39:08.600Z,15.90
2023-05-04T23:41:54.177Z,15.90
2023-05-04T23:44:39.765Z,15.90
2023-05-04T23:47:25.575Z,15.90
2023-05-04T23:50:11.646Z,15.90
2023-05-04T23:52:57.206Z,15.90
2023-05-04T23:55:42.860Z,15.90
2023-05-04T23:58:28.637Z,15.80
